This is the latest recevied weather packets stored in our database for station/object N6RDS-8. If no packets are shown the sender has not sent any weather packets the latest 10 day(s).
| Time | Temp. | Humidity | Pressure | Rain* | Wind** | Luminosity | Snow |
|---|---|---|---|---|---|---|---|
| 1777486512 | 22.78° C | 20% | 1020.6 hPa | 0 mm | - | 622 W/m² | - |
| 1777486204 | 23.33° C | 20% | 1020.8 hPa | 0 mm | - | 544 W/m² | - |
| 1777485902 | 22.22° C | 20% | 1020.6 hPa | 0 mm | - | 546 W/m² | - |
| 1777485597 | 22.22° C | 22% | 1020.8 hPa | 0 mm | - | 568 W/m² | - |
| 1777485293 | 22.22° C | 22% | 1021 hPa | 0 mm | - | 478 W/m² | - |
| 1777484989 | 22.22° C | 23% | 1021 hPa | 0 mm | - | 503 W/m² | - |
| 1777484687 | 22.22° C | 22% | 1021.1 hPa | 0 mm | - | 352 W/m² | - |
| 1777484383 | 21.67° C | 24% | 1021.1 hPa | 0 mm | - | 396 W/m² | - |
| 1777484078 | 21.67° C | 23% | 1021.1 hPa | 0 mm | - | 283 W/m² | - |
| 1777483775 | 22.22° C | 24% | 1021.3 hPa | 0 mm | - | 341 W/m² | - |
| 1777483472 | 21.67° C | 24% | 1021.1 hPa | 0 mm | - | 329 W/m² | - |
| 1777483167 | 21.11° C | 25% | 1020.9 hPa | 0 mm | - | 296 W/m² | - |
| 1777482864 | 21.11° C | 25% | 1021.1 hPa | 0 mm | - | 315 W/m² | - |
| 1777482559 | 21.11° C | 26% | 1021.1 hPa | 0 mm | - | 273 W/m² | - |
| 1777482257 | 21.67° C | 26% | 1021.3 hPa | 0 mm | - | 307 W/m² | - |
| 1777481954 | 21.11° C | 26% | 1021 hPa | 0 mm | - | 456 W/m² | - |
| 1777481652 | 21.11° C | 26% | 1021 hPa | 0 mm | - | 258 W/m² | - |
| 1777481349 | 20.56° C | 26% | 1020.9 hPa | 0 mm | - | 357 W/m² | - |
| 1777481045 | 20° C | 26% | 1020.9 hPa | 0 mm | - | 364 W/m² | - |
| 1777480742 | 20° C | 26% | 1020.9 hPa | 0 mm | - | 279 W/m² | - |
| 1777480439 | 20° C | 26% | 1021 hPa | 0 mm | - | 232 W/m² | - |
| 1777480135 | 20° C | 25% | 1021.1 hPa | 0 mm | - | 224 W/m² | - |
| 1777479830 | 19.44° C | 27% | 1021.3 hPa | 0 mm | - | 256 W/m² | - |
| 1777479528 | 18.33° C | 28% | 1021.1 hPa | 0 mm | - | 362 W/m² | - |
| 1777479224 | 17.78° C | 28% | 1021.3 hPa | 0 mm | - | 286 W/m² | - |
* Rain latest hour (hover to see other rain measurements)
** Current wind speed in m/s (hover to see current wind gust speed)